Latest Weather Observations for Alice Springs Airport

IDD60801

Issued at 12:05 pm CST Friday 28 November 2014 (issued every 30 minutes, with the page automatically refreshed every 10 minutes)

About weather observations | Map of weather stations | Latest weather observations for NT | Other Formats
Station Details ID: 015590 Name: ALICE SPRINGS AIRPORT Lat: -23.80 Lon: 133.89 Height: 546.0 m
Data from the previous 72 hours. | See also: Recent months at Alice Springs Airport
Date/Time
CST
Temp
°C
App
Temp
°C
Dew
Point
Rel
Hum
%
Delta-T
°C
Wind Press
QNH
hPa
Press
MSL
hPa
Rain
since 9 am
mm
Dir
 
Spd
km/h
Gust
km/h
Spd
kts
Gust
kts
28/12:00pm 34.1 29.7 2.7 14 16.5 SSE 15 32 8 17 1014.0 1010.5 0.0
28/11:30am 33.0 29.9 3.5 15 15.6 ESE 9 24 5 13 1014.6 1011.2 0.0
28/11:00am 32.3 28.1 1.9 14 15.6 ESE 13 20 7 11 1014.9 1011.5 0.0
28/10:30am 31.9 26.1 0.1 13 15.8 NE 20 28 11 15 1015.2 1011.8 0.0
28/10:00am 30.8 25.4 -1.0 13 15.4 E 17 26 9 14 1015.5 1012.1 0.0
28/09:30am 29.8 24.7 -1.8 13 15.0 E 15 24 8 13 1015.7 1012.4 0.0
28/09:00am 29.0 22.9 -2.1 13 14.6 E 20 32 11 17 1015.8 1012.5 0.8
28/08:30am 27.5 22.2 -3.4 13 14.0 E 15 22 8 12 1015.8 1012.5 0.8
28/08:00am 26.3 21.5 -2.8 14 13.2 E 13 19 7 10 1016.1 1012.7 0.8
28/07:30am 24.6 20.8 1.8 22 11.1 ESE 11 13 6 7 1015.8 1012.5 0.8
28/07:00am 22.4 21.4 5.5 33 8.7 CALM 0 4 0 2 1015.8 1012.5 0.8
28/06:30am 18.3 17.7 7.3 48 5.7 CALM 0 0 0 0 1015.8 1012.5 0.8
28/06:00am 16.6 14.7 6.7 52 5.0 WNW 6 7 3 4 1015.5 1012.1 0.8
28/05:30am 15.8 13.6 6.4 53 4.7 W 7 9 4 5 1015.3 1011.9 0.8
28/05:00am 15.8 13.8 7.2 56 4.4 E 7 9 4 5 1015.1 1011.7 0.8
28/04:30am 16.8 15.0 9.5 62 3.9 SE 9 11 5 6 1015.0 1011.6 0.8
28/04:00am 16.9 14.7 9.4 61 4.0 ESE 11 11 6 6 1015.0 1011.6 0.8
28/03:30am 16.9 15.2 9.7 62 3.9 SE 9 11 5 6 1015.0 1011.6 0.8
28/03:00am 17.3 15.4 7.7 53 5.0 ESE 7 7 4 4 1015.0 1011.6 0.8
28/02:30am 17.6 16.8 6.4 47 5.7 CALM 0 0 0 0 1015.1 1011.7 0.8
28/02:00am 18.3 17.6 7.1 48 5.8 CALM 0 0 0 0 1015.0 1011.6 0.8
28/01:30am 18.9 18.6 8.8 52 5.4 CALM 0 0 0 0 1015.0 1011.6 0.8
28/01:00am 19.1 17.1 6.9 45 6.3 E 7 7 4 4 1015.2 1011.8 0.8
28/12:30am 19.3 17.0 7.5 46 6.2 E 9 9 5 5 1015.4 1012.0 0.8
28/12:00am 20.0 18.4 8.9 48 6.0 ENE 7 9 4 5 1015.7 1012.4 0.8
 
Date/Time
CST
Temp
°C
App
Temp
°C
Dew
Point
Rel
Hum
%
Delta-T
°C
Wind Press
QNH
hPa
Press
MSL
hPa
Rain
since 9 am
mm
Dir
 
Spd
km/h
Gust
km/h
Spd
kts
Gust
kts
27/11:30pm 21.4 19.5 7.4 40 7.4 NNE 7 7 4 4 1016.0 1012.6 0.8
27/11:00pm 21.5 19.5 7.3 40 7.5 NNE 7 9 4 5 1016.1 1012.7 0.8
27/10:30pm 21.9 19.8 8.2 41 7.4 ESE 9 11 5 6 1016.3 1012.9 0.8
27/10:00pm 22.8 21.0 9.4 42 7.4 ESE 9 9 5 5 1016.4 1013.0 0.8
27/09:30pm 24.1 21.8 7.6 34 8.9 SE 9 9 5 5 1016.2 1012.8 0.8
27/09:00pm 23.8 21.9 9.2 39 8.1 SSE 9 13 5 7 1015.6 1012.3 0.8
27/08:30pm 24.4 21.4 7.6 34 9.1 SE 13 20 7 11 1015.3 1011.9 0.8
27/08:00pm 25.9 23.6 7.5 31 10.0 E 9 11 5 6 1014.7 1011.3 0.8
27/07:30pm 27.0 24.3 7.4 29 10.7 E 11 13 6 7 1014.5 1011.1 0.8
27/07:00pm 28.9 25.2 6.4 24 12.2 E 15 19 8 10 1014.1 1010.7 0.8
27/06:30pm 30.2 26.3 3.5 18 13.9 E 13 17 7 9 1014.0 1010.5 0.8
27/06:00pm 30.8 26.5 1.2 15 14.9 E 13 19 7 10 1013.8 1010.4 0.8
27/05:30pm 31.1 26.4 1.1 14 15.1 E 15 20 8 11 1014.0 1010.5 0.8
27/05:00pm 30.0 25.4 1.3 16 14.4 ESE 15 19 8 10 1014.1 1010.7 0.8
27/04:30pm 30.3 26.1 1.9 16 14.4 SE 13 19 7 10 1014.2 1010.8 0.8
27/04:00pm 29.9 26.2 2.5 17 14.0 SE 11 17 6 9 1014.7 1011.3 0.8
27/03:30pm 29.5 24.4 0.9 16 14.2 SE 17 20 9 11 1015.0 1011.6 0.8
27/03:00pm 28.8 23.0 0.0 15 14.0 SSE 20 28 11 15 1015.0 1011.6 0.8
27/02:30pm 28.2 22.6 0.2 16 13.6 SE 19 26 10 14 1015.5 1012.1 0.8
27/02:00pm 27.6 22.3 -0.8 15 13.5 SSE 17 20 9 11 1016.2 1012.8 0.6
27/01:30pm 26.7 21.9 0.3 18 12.7 S 15 22 8 12 1016.4 1013.0 0.6
27/01:00pm 25.3 21.2 2.5 22 11.3 S 13 19 7 10 1017.0 1013.6 0.6
27/12:30pm 23.7 20.0 4.7 29 9.7 ESE 13 17 7 9 1016.8 1013.4 0.6
27/12:00pm 22.6 19.3 8.2 39 7.8 ESE 15 19 8 10 1017.2 1013.8 0.6
27/11:30am 20.4 18.8 11.4 56 5.1 ENE 11 15 6 8 1017.7 1014.4 0.6
27/11:00am 24.1 20.8 2.6 24 10.6 SE 9 15 5 8 1018.1 1014.7 0.0
27/10:30am 25.8 20.7 -9.5 9 14.1 S 11 15 6 8 1018.2 1014.8 0.0
27/10:00am 25.9 20.4 -9.2 9 14.1 SE 13 17 7 9 1018.4 1015.0 0.0
27/09:30am 26.2 20.8 -8.7 9 14.2 SE 13 17 7 9 1018.3 1014.9 0.0
27/09:00am 25.5 20.1 -8.6 10 13.8 SE 13 17 7 9 1018.4 1015.0 0.0
27/08:30am 25.3 19.4 -10.0 9 13.9 SSE 15 19 8 10 1018.0 1014.6 0.0
27/08:00am 25.1 20.1 -8.7 10 13.6 SE 11 15 6 8 1017.9 1014.5 0.0
27/07:30am 24.3 19.0 -7.0 12 12.9 SE 13 19 7 10 1017.5 1014.2 0.0
27/07:00am 23.3 19.7 -2.1 18 11.4 SSE 7 9 4 5 1017.3 1014.0 0.0
27/06:30am 23.3 19.8 1.4 23 10.5 SE 9 11 5 6 1017.1 1013.7 0.0
27/06:00am 23.5 19.9 -2.1 18 11.5 ESE 7 11 4 6 1016.6 1013.2 0.0
27/05:30am 23.8 18.9 -3.1 16 11.9 ESE 13 13 7 7 1016.4 1013.0 0.0
27/05:00am 22.8 18.5 1.1 24 10.3 E 13 15 7 8 1016.1 1012.7 0.0
27/04:30am 24.3 19.2 -2.3 17 12.0 E 15 19 8 10 1016.0 1012.6 0.0
27/04:00am 24.7 19.6 -2.3 16 12.2 ESE 15 19 8 10 1015.5 1012.1 0.0
27/03:30am 25.0 20.3 -2.0 16 12.3 E 13 17 7 9 1015.2 1011.8 0.0
27/03:00am 24.5 20.4 -0.2 19 11.6 ESE 11 13 6 7 1015.1 1011.7 0.0
27/02:30am 25.5 20.5 -1.2 17 12.4 ESE 15 20 8 11 1015.2 1011.8 0.0
27/02:00am 26.3 20.2 -2.3 15 13.1 ESE 20 30 11 16 1015.2 1011.8 0.0
27/01:30am 26.7 21.2 -2.2 15 13.3 ESE 17 24 9 13 1015.2 1011.8 0.0
27/01:00am 26.4 21.8 -0.8 17 12.8 ESE 13 15 7 8 1015.5 1012.1 0.0
27/12:30am 26.3 21.8 -0.2 17 12.6 SE 13 17 7 9 1015.7 1012.4 0.0
27/12:00am 27.3 21.9 -1.1 15 13.4 ESE 17 28 9 15 1015.8 1012.5 0.0
 
Date/Time
CST
Temp
°C
App
Temp
°C
Dew
Point
Rel
Hum
%
Delta-T
°C
Wind Press
QNH
hPa
Press
MSL
hPa
Rain
since 9 am
mm
Dir
 
Spd
km/h
Gust
km/h
Spd
kts
Gust
kts
26/11:30pm 27.3 22.5 0.1 17 13.1 SE 15 22 8 12 1016.1 1012.7 0.0
26/11:00pm 27.5 22.7 0.2 17 13.2 SE 15 24 8 13 1015.8 1012.5 0.0
26/10:30pm 27.2 23.0 1.8 19 12.6 SE 13 17 7 9 1015.8 1012.5 0.0
26/10:00pm 27.7 23.5 1.8 18 12.9 SE 13 19 7 10 1015.5 1012.1 0.0
26/09:30pm 28.5 23.9 1.7 17 13.4 SE 15 20 8 11 1015.1 1011.7 0.0
26/09:00pm 29.3 24.0 1.6 17 13.9 SE 19 24 10 13 1014.7 1011.3 0.0
26/08:30pm 30.1 24.5 1.1 15 14.5 SE 20 28 11 15 1014.4 1011.0 0.0
26/08:00pm 30.2 25.3 1.7 16 14.4 SE 17 24 9 13 1014.2 1010.8 0.0
26/07:30pm 30.9 25.5 1.0 14 15.0 SE 19 26 10 14 1014.0 1010.5 0.0
26/07:00pm 31.7 25.6 0.5 13 15.6 SE 22 32 12 17 1013.6 1010.2 0.0
26/06:30pm 32.5 26.7 2.1 14 15.7 SE 22 30 12 16 1013.4 1010.0 0.0
26/06:00pm 33.0 26.7 1.7 13 16.1 SE 24 33 13 18 1013.1 1009.7 0.0
26/05:30pm 33.7 27.6 2.6 14 16.3 ESE 24 35 13 19 1013.0 1009.6 0.0
26/05:00pm 34.4 28.2 2.3 13 16.8 SE 24 32 13 17 1013.0 1009.6 0.0
26/04:30pm 34.5 26.9 2.6 13 16.8 ESE 32 37 17 20 1013.1 1009.7 0.0
26/04:00pm 34.0 27.4 4.4 15 16.0 SE 28 33 15 18 1013.3 1009.9 0.0
26/03:30pm 33.6 28.7 4.9 16 15.6 E 20 28 11 15 1013.5 1010.1 0.0
26/03:00pm 33.1 28.3 5.8 18 15.0 SE 20 37 11 20 1013.6 1010.2 0.0
26/02:30pm 34.3 28.4 6.0 17 15.7 SE 26 35 14 19 1014.1 1010.7 0.0
26/02:00pm 32.8 27.5 6.8 20 14.5 SE 24 33 13 18 1014.5 1011.1 0.0
26/01:30pm 33.7 28.2 6.0 18 15.3 SE 24 35 13 19 1015.0 1011.6 0.0
26/01:00pm 32.8 28.5 7.1 20 14.4 E 19 37 10 20 1015.4 1012.0 0.0
26/12:30pm 31.6 27.7 6.9 21 13.7 E 17 32 9 17 1016.2 1012.8 0.0
26/12:00pm 31.0 26.6 7.6 23 13.1 E 20 39 11 21 1016.6 1013.2 0.0
26/11:30am 30.2 25.4 7.3 23 12.7 ESE 22 35 12 19 1016.9 1013.5 0.0
26/11:00am 30.0 25.1 6.9 23 12.7 ESE 22 32 12 17 1017.3 1014.0 0.0
26/10:30am 29.0 22.9 6.6 24 12.2 ESE 28 41 15 22 1017.7 1014.4 0.0
26/10:18am 28.9 22.8 6.7 24 12.1 SE 28 46 15 25 1017.7 1014.4 0.0
26/10:00am 28.3 23.0 6.8 25 11.7 ESE 24 33 13 18 1018.1 1014.7 0.0
26/09:30am 28.0 22.6 6.3 25 11.7 ESE 24 32 13 17 1018.3 1014.9 0.0
26/09:00am 27.0 21.3 6.5 27 11.0 ESE 26 39 14 21 1018.3 1014.9 0.0
26/08:30am 25.8 20.2 7.1 30 10.1 ESE 26 33 14 18 1018.3 1014.9 0.0
26/08:00am 25.0 19.0 6.9 31 9.7 E 28 37 15 20 1018.3 1014.9 0.0
26/07:30am 24.1 18.2 7.3 34 9.0 ESE 28 33 15 18 1018.1 1014.7 0.0
26/07:00am 22.6 20.8 9.6 43 7.2 SE 9 13 5 7 1017.7 1014.4 0.0
26/06:30am 19.1 17.9 9.7 54 5.1 W 6 9 3 5 1017.4 1014.1 0.0
26/06:00am 17.6 16.5 9.8 60 4.2 S 6 7 3 4 1017.1 1013.7 0.0
26/05:30am 18.7 17.7 8.8 52 5.3 SW 4 7 2 4 1016.9 1013.5 0.0
26/05:00am 17.9 17.7 9.1 56 4.7 CALM 0 0 0 0 1016.7 1013.3 0.0
26/04:30am 18.4 18.5 10.2 59 4.5 CALM 0 0 0 0 1016.7 1013.3 0.0
26/04:00am 19.1 17.1 8.8 51 5.5 SSE 9 11 5 6 1016.4 1013.0 0.0
26/03:30am 19.2 17.0 8.0 48 5.9 SSE 9 9 5 5 1016.4 1013.0 0.0
26/03:00am 20.3 17.7 7.9 44 6.6 ESE 11 11 6 6 1016.6 1013.2 0.0
26/02:30am 20.8 18.8 7.3 41 7.1 ESE 7 9 4 5 1016.6 1013.2 0.0
26/02:00am 20.2 19.4 8.0 45 6.5 SSW 2 7 1 4 1016.6 1013.2 0.0
26/01:30am 21.4 18.9 6.4 37 7.8 SSE 9 9 5 5 1016.7 1013.3 0.0
26/01:00am 22.1 19.2 6.6 36 8.1 SSE 11 13 6 7 1016.9 1013.5 0.0
26/12:30am 23.4 20.3 5.4 31 9.3 ESE 11 15 6 8 1017.4 1014.1 0.0
26/12:00am 23.4 20.4 5.9 32 9.1 ESE 11 15 6 8 1017.7 1014.4 0.0
 
Date/Time
CST
Temp
°C
App
Temp
°C
Dew
Point
Rel
Hum
%
Delta-T
°C
Wind Press
QNH
hPa
Press
MSL
hPa
Rain
since 9 am
mm
Dir
 
Spd
km/h
Gust
km/h
Spd
kts
Gust
kts
25/11:30pm 23.8 20.5 6.3 32 9.2 SE 13 17 7 9 1017.9 1014.5 0.0
25/11:00pm 24.3 20.6 6.3 31 9.5 SE 15 20 8 11 1018.0 1014.6 0.0
25/10:30pm 24.8 20.7 6.0 30 9.9 SE 17 20 9 11 1017.9 1014.5 0.0
25/10:00pm 25.3 20.7 5.7 28 10.3 SE 19 26 10 14 1017.9 1014.5 0.0
25/09:30pm 25.7 21.2 6.1 28 10.4 SE 19 28 10 15 1017.4 1014.1 0.0
25/09:00pm 26.0 21.9 6.3 28 10.5 SE 17 24 9 13 1017.1 1013.7 0.0
25/08:30pm 26.2 22.1 6.1 27 10.7 SE 17 24 9 13 1017.0 1013.6 0.0
25/08:00pm 26.4 22.3 6.1 27 10.8 SE 17 24 9 13 1016.6 1013.2 0.0
25/07:30pm 26.8 22.0 5.6 25 11.2 SE 20 30 11 16 1016.4 1013.0 0.0
25/07:00pm 27.1 22.4 5.9 26 11.3 SE 20 30 11 16 1016.1 1012.7 0.0
25/06:30pm 27.6 22.7 5.3 24 11.8 SE 20 30 11 16 1015.5 1012.1 0.0
25/06:00pm 28.1 22.3 4.6 22 12.3 SE 24 30 13 16 1015.4 1012.0 0.0
25/05:30pm 28.6 22.9 5.0 22 12.5 SSE 24 33 13 18 1015.2 1011.8 0.0
25/05:00pm 28.9 23.1 4.6 21 12.8 SE 24 39 13 21 1015.0 1011.6 0.0
25/04:30pm 29.4 23.9 5.8 22 12.7 SE 24 35 13 19 1015.2 1011.8 0.0
25/04:00pm 29.6 23.8 6.2 23 12.7 SE 26 35 14 19 1015.4 1012.0 0.0
25/03:30pm 29.6 24.5 6.2 23 12.7 SE 22 33 12 18 1015.5 1012.1 0.0
25/03:00pm 30.3 26.9 13.7 36 10.2 SE 24 39 13 21 1016.2 1012.8 0.0
25/02:30pm 30.6 25.2 6.5 22 13.2 SE 24 33 13 18 1016.4 1013.0 0.0
25/02:00pm 29.4 23.9 5.8 22 12.7 SE 24 37 13 20 1016.9 1013.5 0.0
25/01:30pm 29.2 23.5 4.8 21 12.9 ESE 24 37 13 20 1017.1 1013.7 0.0
25/01:00pm 29.7 23.2 4.5 20 13.3 ESE 28 39 15 21 1017.4 1014.1 0.0
25/12:30pm 29.3 23.0 3.7 19 13.3 ESE 26 35 14 19 1017.6 1014.3 0.0

Other Formats:

Comma delimited format used in spreadsheet applications
http://www.bom.gov.au/fwo/IDD60801/IDD60801.94326.axf

JavaScript Object Notation format (JSON) in row-major order
http://www.bom.gov.au/fwo/IDD60801/IDD60801.94326.json